createdAt,value
2022-09-12T00:02:11.789Z,22.36
2022-09-12T00:04:38.147Z,22.36
2022-09-12T00:07:04.454Z,22.34
2022-09-12T00:09:30.825Z,22.37
2022-09-12T00:11:57.135Z,22.37
2022-09-12T00:14:23.455Z,22.36
2022-09-12T00:16:49.799Z,22.37
2022-09-12T00:19:16.174Z,22.37
2022-09-12T00:21:42.568Z,22.37
2022-09-12T00:24:09.245Z,22.37
2022-09-12T00:26:35.545Z,22.36
2022-09-12T00:29:01.900Z,22.37
2022-09-12T00:31:28.283Z,22.36
2022-09-12T00:33:55.371Z,22.35
2022-09-12T00:36:22.514Z,22.36
2022-09-12T00:38:48.918Z,22.36
2022-09-12T00:41:19.501Z,22.35
2022-09-12T00:43:46.728Z,22.36
2022-09-12T00:46:17.805Z,22.36
2022-09-12T00:48:46.038Z,22.35
2022-09-12T00:51:12.450Z,22.36
2022-09-12T00:53:39.153Z,22.35
2022-09-12T00:56:05.471Z,22.34
2022-09-12T00:58:32.855Z,22.34
2022-09-12T01:00:59.300Z,22.34
2022-09-12T01:03:25.668Z,22.35
2022-09-12T01:05:59.827Z,22.35
2022-09-12T01:08:26.133Z,22.34
2022-09-12T01:10:52.453Z,22.35
2022-09-12T01:13:18.794Z,22.35
2022-09-12T01:15:45.806Z,22.34
2022-09-12T01:18:14.887Z,22.34
2022-09-12T01:20:51.643Z,22.34
2022-09-12T01:23:23.985Z,22.34
2022-09-12T01:26:09.149Z,22.33
2022-09-12T01:28:58.888Z,22.34
2022-09-12T01:31:28.249Z,22.34
2022-09-12T01:34:10.337Z,22.34
2022-09-12T01:36:38.260Z,22.33
2022-09-12T01:39:16.452Z,22.34
2022-09-12T01:42:01.506Z,22.32
2022-09-12T01:44:34.781Z,22.33
2022-09-12T01:47:02.999Z,22.33
2022-09-12T01:49:33.105Z,22.31
2022-09-12T01:52:12.750Z,22.31
2022-09-12T01:54:40.871Z,22.31
2022-09-12T01:57:09.729Z,22.30
2022-09-12T01:59:37.077Z,22.30
2022-09-12T02:02:06.220Z,22.31
2022-09-12T02:04:41.234Z,22.30
2022-09-12T02:07:14.620Z,22.30
2022-09-12T02:09:42.977Z,22.30
2022-09-12T02:12:09.613Z,22.30
2022-09-12T02:14:40.458Z,22.29
2022-09-12T02:17:08.706Z,22.28
2022-09-12T02:19:36.608Z,22.29
2022-09-12T02:22:03.049Z,22.28
2022-09-12T02:24:33.332Z,22.28
2022-09-12T02:27:10.625Z,22.26
2022-09-12T02:29:36.933Z,22.26
2022-09-12T02:32:08.640Z,22.27
2022-09-12T02:34:42.389Z,22.24
2022-09-12T02:37:17.491Z,22.25
2022-09-12T02:39:45.544Z,22.26
2022-09-12T02:42:11.993Z,22.24
2022-09-12T02:44:38.307Z,22.25
2022-09-12T02:47:09.104Z,22.25
2022-09-12T02:49:35.629Z,22.24
2022-09-12T02:52:01.938Z,22.25
2022-09-12T02:54:28.263Z,22.22
2022-09-12T02:56:54.570Z,22.24
2022-09-12T02:59:21.196Z,22.23
2022-09-12T03:01:57.367Z,22.22
2022-09-12T03:04:37.526Z,22.23
2022-09-12T03:07:12.477Z,22.21
2022-09-12T03:09:42.609Z,22.22
2022-09-12T03:12:17.965Z,22.22
2022-09-12T03:14:47.418Z,22.21
2022-09-12T03:17:32.380Z,22.21
2022-09-12T03:20:03.620Z,22.20
2022-09-12T03:22:51.317Z,22.21
2022-09-12T03:25:18.769Z,22.23
2022-09-12T03:27:47.695Z,22.22
2022-09-12T03:30:14.093Z,22.24
2022-09-12T03:32:41.079Z,22.23
2022-09-12T03:35:07.563Z,22.20
2022-09-12T03:37:33.884Z,22.17
2022-09-12T03:40:00.985Z,22.18
2022-09-12T03:42:27.328Z,22.18
2022-09-12T03:44:53.641Z,22.18
2022-09-12T03:47:19.955Z,22.18
2022-09-12T03:49:46.697Z,22.18
2022-09-12T03:52:12.998Z,22.16
2022-09-12T03:54:39.713Z,22.18
2022-09-12T03:57:06.038Z,22.16
2022-09-12T03:59:32.521Z,22.21
2022-09-12T04:01:58.865Z,22.17
2022-09-12T04:04:25.214Z,22.03
2022-09-12T04:06:51.530Z,21.46
2022-09-12T04:09:17.852Z,21.71
2022-09-12T04:11:44.212Z,21.80
2022-09-12T04:14:10.543Z,21.98
2022-09-12T04:16:36.869Z,22.06
2022-09-12T04:19:03.239Z,22.10
2022-09-12T04:21:29.540Z,22.09
2022-09-12T04:23:55.861Z,22.13
2022-09-12T04:26:22.360Z,22.13
2022-09-12T04:28:48.682Z,22.13
2022-09-12T04:31:18.074Z,22.13
2022-09-12T04:33:44.684Z,22.13
2022-09-12T04:36:11.765Z,22.13
2022-09-12T04:38:38.411Z,22.13
2022-09-12T04:41:14.473Z,22.13
2022-09-12T04:43:40.801Z,22.14
2022-09-12T04:46:07.522Z,22.13
2022-09-12T04:48:33.897Z,22.12
2022-09-12T04:51:09.380Z,22.13
2022-09-12T04:53:36.919Z,22.04
2022-09-12T04:56:04.025Z,22.08
2022-09-12T04:58:30.932Z,22.06
2022-09-12T05:00:57.335Z,22.09
2022-09-12T05:03:23.665Z,22.11
2022-09-12T05:05:53.338Z,22.12
2022-09-12T05:08:22.614Z,22.13
2022-09-12T05:10:49.013Z,22.09
2022-09-12T05:13:15.320Z,22.07
2022-09-12T05:15:41.631Z,22.08
2022-09-12T05:18:07.954Z,22.04
2022-09-12T05:20:34.291Z,22.09
2022-09-12T05:23:01.682Z,22.11
2022-09-12T05:25:28.002Z,22.12
2022-09-12T05:27:54.319Z,22.12
2022-09-12T05:30:20.629Z,22.10
2022-09-12T05:32:46.941Z,22.12
2022-09-12T05:35:13.266Z,22.12
2022-09-12T05:37:40.081Z,22.07
2022-09-12T05:40:08.483Z,22.12
2022-09-12T05:42:34.877Z,22.50
2022-09-12T05:45:01.186Z,22.70
2022-09-12T05:47:27.517Z,22.83
2022-09-12T05:49:54.278Z,22.91
2022-09-12T05:52:20.646Z,22.93
2022-09-12T05:54:48.161Z,23.00
2022-09-12T05:57:14.469Z,22.97
2022-09-12T05:59:40.820Z,23.01
2022-09-12T06:02:08.233Z,23.06
2022-09-12T06:04:34.581Z,23.08
2022-09-12T06:07:01.057Z,23.10
2022-09-12T06:09:28.029Z,22.92
2022-09-12T06:11:54.395Z,22.93
2022-09-12T06:14:20.750Z,22.99
2022-09-12T06:16:47.548Z,23.06
2022-09-12T06:19:15.126Z,23.09
2022-09-12T06:21:41.487Z,23.14
2022-09-12T06:24:07.797Z,23.03
2022-09-12T06:26:34.115Z,23.08
2022-09-12T06:29:00.749Z,23.14
2022-09-12T06:31:28.762Z,23.09
2022-09-12T06:33:55.109Z,23.13
2022-09-12T06:36:22.452Z,23.03
2022-09-12T06:38:48.833Z,22.93
2022-09-12T06:41:15.162Z,22.92
2022-09-12T06:43:41.542Z,23.09
2022-09-12T06:46:08.315Z,23.14
2022-09-12T06:48:37.371Z,23.24
2022-09-12T06:51:09.167Z,23.15
2022-09-12T06:53:36.903Z,23.00
2022-09-12T06:56:09.570Z,22.16
2022-09-12T06:58:35.929Z,22.18
2022-09-12T07:01:06.244Z,22.57
2022-09-12T07:03:32.602Z,22.61
2022-09-12T07:06:08.773Z,22.64
2022-09-12T07:08:35.881Z,22.51
2022-09-12T07:11:08.248Z,22.33
2022-09-12T07:13:34.698Z,22.51
2022-09-12T07:16:04.190Z,22.58
2022-09-12T07:18:31.226Z,22.77
2022-09-12T07:20:59.682Z,22.80
2022-09-12T07:23:25.998Z,22.63
2022-09-12T07:25:53.158Z,22.43
2022-09-12T07:28:19.483Z,22.24
2022-09-12T07:30:45.835Z,22.25
2022-09-12T07:33:12.188Z,22.13
2022-09-12T07:35:38.510Z,22.25
2022-09-12T07:38:04.914Z,22.26
2022-09-12T07:40:31.241Z,22.26
2022-09-12T07:42:57.587Z,22.26
2022-09-12T07:45:23.923Z,22.29
2022-09-12T07:47:53.121Z,22.27
2022-09-12T07:50:19.459Z,22.28
2022-09-12T07:52:45.985Z,22.25
2022-09-12T07:55:12.346Z,22.27
2022-09-12T07:57:38.657Z,22.28
2022-09-12T08:00:05.593Z,22.29
2022-09-12T08:02:38.724Z,22.29
2022-09-12T08:05:05.222Z,22.29
2022-09-12T08:07:31.537Z,22.28
2022-09-12T08:09:57.858Z,22.29
2022-09-12T08:12:24.187Z,22.58
2022-09-12T08:14:50.520Z,22.71
2022-09-12T08:17:16.862Z,22.60
2022-09-12T08:19:43.635Z,22.70
2022-09-12T08:22:09.966Z,22.91
2022-09-12T08:24:36.296Z,22.95
2022-09-12T08:27:02.608Z,22.98
2022-09-12T08:29:28.991Z,22.87
2022-09-12T08:31:57.414Z,22.62
2022-09-12T08:34:24.837Z,22.61
2022-09-12T08:36:51.187Z,22.74
2022-09-12T08:39:17.511Z,23.03
2022-09-12T08:41:44.746Z,22.97
2022-09-12T08:44:19.806Z,22.88
2022-09-12T08:46:52.926Z,22.83
2022-09-12T08:49:23.388Z,22.62
2022-09-12T08:51:49.702Z,22.72
2022-09-12T08:54:20.029Z,22.89
2022-09-12T08:56:46.345Z,22.95
2022-09-12T08:59:13.643Z,22.88
2022-09-12T09:01:43.856Z,22.96
2022-09-12T09:04:10.145Z,23.10
2022-09-12T09:06:54.196Z,23.10
2022-09-12T09:09:24.921Z,23.06
2022-09-12T09:12:03.648Z,23.15
2022-09-12T09:14:49.072Z,23.21
2022-09-12T09:17:25.170Z,23.19
2022-09-12T09:19:53.750Z,23.23
2022-09-12T09:22:32.282Z,23.21
2022-09-12T09:25:02.571Z,23.21
2022-09-12T09:27:41.631Z,23.24
2022-09-12T09:30:12.455Z,23.06
2022-09-12T09:32:38.792Z,23.06
2022-09-12T09:35:36.522Z,23.19
2022-09-12T09:38:19.037Z,23.31
2022-09-12T09:40:51.410Z,23.24
2022-09-12T09:43:22.847Z,23.03
2022-09-12T09:45:49.639Z,23.15
2022-09-12T09:48:28.890Z,23.16
2022-09-12T09:50:56.789Z,23.14
2022-09-12T09:53:42.418Z,23.16
2022-09-12T09:56:26.392Z,23.22
2022-09-12T09:58:52.709Z,23.19
2022-09-12T10:01:19.121Z,23.14
2022-09-12T10:03:49.976Z,23.32
2022-09-12T10:06:23.010Z,23.41
2022-09-12T10:08:49.523Z,23.46
2022-09-12T10:11:15.767Z,23.23
2022-09-12T10:13:56.822Z,23.33
2022-09-12T10:16:24.188Z,23.53
2022-09-12T10:18:53.380Z,23.62
2022-09-12T10:21:25.410Z,23.41
2022-09-12T10:23:53.094Z,23.30
2022-09-12T10:26:19.418Z,23.35
2022-09-12T10:28:45.706Z,23.39
2022-09-12T10:31:16.071Z,23.26
2022-09-12T10:33:47.383Z,23.17
2022-09-12T10:36:14.262Z,23.40
2022-09-12T10:38:40.598Z,23.30
2022-09-12T10:41:07.383Z,22.93
2022-09-12T10:43:33.634Z,22.89
2022-09-12T10:46:11.692Z,23.30
2022-09-12T10:48:38.413Z,23.45
2022-09-12T10:51:05.023Z,23.50
2022-09-12T10:53:41.091Z,23.44
2022-09-12T10:56:26.147Z,23.46
2022-09-12T10:59:04.980Z,23.49
2022-09-12T11:01:35.026Z,23.51
2022-09-12T11:04:16.063Z,23.42
2022-09-12T11:06:49.075Z,23.35
2022-09-12T11:09:18.173Z,23.30
2022-09-12T11:11:57.650Z,23.37
2022-09-12T11:14:36.633Z,23.34
2022-09-12T11:17:05.997Z,23.68
2022-09-12T11:19:51.189Z,23.70
2022-09-12T11:22:36.891Z,23.73
2022-09-12T11:25:06.967Z,23.56
2022-09-12T11:27:35.855Z,23.56
2022-09-12T11:30:03.714Z,23.51
2022-09-12T11:32:45.353Z,23.51
2022-09-12T11:35:30.577Z,23.41
2022-09-12T11:38:08.834Z,23.54
2022-09-12T11:40:55.614Z,23.55
2022-09-12T11:43:41.523Z,23.58
2022-09-12T11:46:18.679Z,23.64
2022-09-12T11:48:49.239Z,23.64
2022-09-12T11:51:17.121Z,23.49
2022-09-12T11:53:43.434Z,23.54
2022-09-12T11:56:16.397Z,23.63
2022-09-12T11:58:42.886Z,23.49
2022-09-12T12:01:20.992Z,23.49
2022-09-12T12:03:47.569Z,23.58
2022-09-12T12:06:20.778Z,23.59
2022-09-12T12:08:47.330Z,23.62
2022-09-12T12:11:14.803Z,23.66
2022-09-12T12:13:44.738Z,23.71
2022-09-12T12:16:14.523Z,23.71
2022-09-12T12:18:40.899Z,23.66
2022-09-12T12:21:19.941Z,23.65
2022-09-12T12:24:05.205Z,23.71
2022-09-12T12:26:40.724Z,23.78
2022-09-12T12:29:27.273Z,23.79
2022-09-12T12:31:59.298Z,23.74
2022-09-12T12:34:35.138Z,23.73
2022-09-12T12:37:19.515Z,23.70
2022-09-12T12:39:46.142Z,23.73
2022-09-12T12:42:32.448Z,23.77
2022-09-12T12:45:03.590Z,23.88
2022-09-12T12:47:33.080Z,23.55
2022-09-12T12:50:01.159Z,23.29
2022-09-12T12:52:28.394Z,23.15
2022-09-12T12:54:55.552Z,23.15
2022-09-12T12:57:21.788Z,23.12
2022-09-12T12:59:49.022Z,23.17
2022-09-12T13:02:19.183Z,23.12
2022-09-12T13:04:45.551Z,23.12
2022-09-12T13:07:13.250Z,23.13
2022-09-12T13:09:45.970Z,23.15
2022-09-12T13:12:22.105Z,23.08
2022-09-12T13:14:48.416Z,23.05
2022-09-12T13:17:19.835Z,23.05
2022-09-12T13:19:46.158Z,23.08
2022-09-12T13:22:12.830Z,23.30
2022-09-12T13:24:44.427Z,23.61
2022-09-12T13:27:15.514Z,23.82
2022-09-12T13:29:42.361Z,23.90
2022-09-12T13:32:08.722Z,23.84
2022-09-12T13:34:35.310Z,23.92
2022-09-12T13:37:07.422Z,23.47
2022-09-12T13:39:48.116Z,23.42
2022-09-12T13:42:14.377Z,23.43
2022-09-12T13:44:44.627Z,23.74
2022-09-12T13:47:13.622Z,24.00
2022-09-12T13:49:39.987Z,24.33
2022-09-12T13:52:07.239Z,24.56
2022-09-12T13:54:34.021Z,24.56
2022-09-12T13:57:00.344Z,24.56
2022-09-12T13:59:26.699Z,24.41
2022-09-12T14:01:53.093Z,24.28
2022-09-12T14:04:39.191Z,24.22
2022-09-12T14:07:13.520Z,24.31
2022-09-12T14:09:40.911Z,24.34
2022-09-12T14:12:17.889Z,24.31
2022-09-12T14:14:46.135Z,24.31
2022-09-12T14:17:18.945Z,24.33
2022-09-12T14:19:48.216Z,24.24
2022-09-12T14:22:18.090Z,24.40
2022-09-12T14:24:49.559Z,24.71
2022-09-12T14:27:19.622Z,24.88
2022-09-12T14:29:46.837Z,24.43
2022-09-12T14:32:18.577Z,24.34
2022-09-12T14:35:03.447Z,24.32
2022-09-12T14:37:29.762Z,24.41
2022-09-12T14:39:56.771Z,24.32
2022-09-12T14:42:29.826Z,24.35
2022-09-12T14:45:00.194Z,24.39
2022-09-12T14:47:27.568Z,24.31
2022-09-12T14:49:53.873Z,24.33
2022-09-12T14:52:22.557Z,24.32
2022-09-12T14:54:58.742Z,24.33
2022-09-12T14:57:27.754Z,24.33
2022-09-12T14:59:54.677Z,24.29
2022-09-12T15:02:20.914Z,24.27
2022-09-12T15:04:48.113Z,24.29
2022-09-12T15:07:34.736Z,24.24
2022-09-12T15:10:02.237Z,24.35
2022-09-12T15:12:28.590Z,24.32
2022-09-12T15:15:01.203Z,24.37
2022-09-12T15:17:27.640Z,24.29
2022-09-12T15:19:54.172Z,24.15
2022-09-12T15:22:21.394Z,24.27
2022-09-12T15:24:47.761Z,24.29
2022-09-12T15:27:14.065Z,24.27
2022-09-12T15:29:40.397Z,24.19
2022-09-12T15:32:06.788Z,24.49
2022-09-12T15:34:33.144Z,24.33
2022-09-12T15:36:59.455Z,24.27
2022-09-12T15:39:25.779Z,24.16
2022-09-12T15:41:52.103Z,24.32
2022-09-12T15:44:20.086Z,24.39
2022-09-12T15:46:46.648Z,24.53
2022-09-12T15:49:13.073Z,24.66
2022-09-12T15:51:39.975Z,24.86
2022-09-12T15:54:06.369Z,24.77
2022-09-12T15:56:32.707Z,24.69
2022-09-12T15:59:00.088Z,23.90
2022-09-12T16:01:26.747Z,23.60
2022-09-12T16:03:53.205Z,23.47
2022-09-12T16:06:19.505Z,23.41
2022-09-12T16:08:45.876Z,23.46
2022-09-12T16:11:13.905Z,23.46
2022-09-12T16:13:40.204Z,23.39
2022-09-12T16:16:07.582Z,23.36
2022-09-12T16:18:33.937Z,23.33
2022-09-12T16:21:00.246Z,23.33
2022-09-12T16:23:26.577Z,23.34
2022-09-12T16:25:56.639Z,23.38
2022-09-12T16:28:22.969Z,23.30
2022-09-12T16:30:56.410Z,23.30
2022-09-12T16:33:22.943Z,23.31
2022-09-12T16:35:51.138Z,23.28
2022-09-12T16:38:17.838Z,23.23
2022-09-12T16:40:44.145Z,23.24
2022-09-12T16:43:10.463Z,23.21
2022-09-12T16:45:36.782Z,23.19
2022-09-12T16:48:03.169Z,23.19
2022-09-12T16:50:30.291Z,23.19
2022-09-12T16:52:56.612Z,23.16
2022-09-12T16:55:22.958Z,23.15
2022-09-12T16:57:49.421Z,23.15
2022-09-12T17:00:15.751Z,23.14
2022-09-12T17:02:42.088Z,23.11
2022-09-12T17:05:08.505Z,23.08
2022-09-12T17:07:35.154Z,23.06
2022-09-12T17:10:01.508Z,23.06
2022-09-12T17:12:27.818Z,23.07
2022-09-12T17:14:54.360Z,23.05
2022-09-12T17:17:20.676Z,23.06
2022-09-12T17:19:47.036Z,23.06
2022-09-12T17:22:13.341Z,22.71
2022-09-12T17:24:40.454Z,22.22
2022-09-12T17:27:06.789Z,21.83
2022-09-12T17:29:35.005Z,21.71
2022-09-12T17:32:01.570Z,21.59
2022-09-12T17:34:27.931Z,21.52
2022-09-12T17:36:54.271Z,21.47
2022-09-12T17:39:20.598Z,21.57
2022-09-12T17:41:47.086Z,21.65
2022-09-12T17:44:14.142Z,21.73
2022-09-12T17:46:40.545Z,21.67
2022-09-12T17:49:07.873Z,21.58
2022-09-12T17:51:34.207Z,21.78
2022-09-12T17:54:01.453Z,21.90
2022-09-12T17:56:29.094Z,21.91
2022-09-12T17:58:56.337Z,22.28
2022-09-12T18:01:41.387Z,22.81
2022-09-12T18:04:07.774Z,23.03
2022-09-12T18:06:34.094Z,23.11
2022-09-12T18:09:01.473Z,22.72
2022-09-12T18:11:27.923Z,22.87
2022-09-12T18:13:54.355Z,22.92
2022-09-12T18:16:20.738Z,22.66
2022-09-12T18:18:47.290Z,22.65
2022-09-12T18:21:13.626Z,22.68
2022-09-12T18:23:39.995Z,22.68
2022-09-12T18:26:07.153Z,22.58
2022-09-12T18:28:33.882Z,22.50
2022-09-12T18:31:00.247Z,22.49
2022-09-12T18:33:26.646Z,22.48
2022-09-12T18:35:52.963Z,22.47
2022-09-12T18:38:19.303Z,22.47
2022-09-12T18:40:45.627Z,22.47
2022-09-12T18:43:11.955Z,22.47
2022-09-12T18:45:38.281Z,22.47
2022-09-12T18:48:06.087Z,22.49
2022-09-12T18:50:32.701Z,22.47
2022-09-12T18:52:59.894Z,22.48
2022-09-12T18:55:26.419Z,22.51
2022-09-12T18:57:52.756Z,22.50
2022-09-12T19:00:19.065Z,22.54
2022-09-12T19:02:45.396Z,22.54
2022-09-12T19:05:12.770Z,22.54
2022-09-12T19:07:39.094Z,22.54
2022-09-12T19:10:15.171Z,22.54
2022-09-12T19:12:41.727Z,22.55
2022-09-12T19:15:09.735Z,22.54
2022-09-12T19:17:36.317Z,22.52
2022-09-12T19:20:02.638Z,22.54
2022-09-12T19:22:29.272Z,22.53
2022-09-12T19:24:55.609Z,22.54
2022-09-12T19:27:21.933Z,22.52
2022-09-12T19:29:48.550Z,22.53
2022-09-12T19:32:14.875Z,22.52
2022-09-12T19:34:41.745Z,22.52
2022-09-12T19:37:08.257Z,22.52
2022-09-12T19:39:34.640Z,22.51
2022-09-12T19:42:00.991Z,22.50
2022-09-12T19:44:29.017Z,22.50
2022-09-12T19:46:55.351Z,22.50
2022-09-12T19:49:21.682Z,22.50
2022-09-12T19:51:48.007Z,22.50
2022-09-12T19:54:14.313Z,22.49
2022-09-12T19:56:40.650Z,22.49
2022-09-12T19:59:06.990Z,22.48
2022-09-12T20:01:34.629Z,22.47
2022-09-12T20:04:01.007Z,22.47
2022-09-12T20:06:27.510Z,22.45
2022-09-12T20:08:53.975Z,22.46
2022-09-12T20:11:21.778Z,22.46
2022-09-12T20:13:48.092Z,22.46
2022-09-12T20:16:20.430Z,22.46
2022-09-12T20:18:49.372Z,22.47
2022-09-12T20:21:16.506Z,22.48
2022-09-12T20:23:42.982Z,22.48
2022-09-12T20:26:09.298Z,22.47
2022-09-12T20:28:35.988Z,22.47
2022-09-12T20:31:03.131Z,22.46
2022-09-12T20:33:29.557Z,22.40
2022-09-12T20:36:00.657Z,22.37
2022-09-12T20:38:26.982Z,22.36
2022-09-12T20:40:53.292Z,22.37
2022-09-12T20:43:19.612Z,22.35
2022-09-12T20:45:45.917Z,22.36
2022-09-12T20:48:12.242Z,22.35
2022-09-12T20:50:38.561Z,22.34
2022-09-12T20:53:05.228Z,22.34
2022-09-12T20:55:31.541Z,22.32
2022-09-12T20:57:57.862Z,22.31
2022-09-12T21:00:24.187Z,22.33
2022-09-12T21:02:51.065Z,22.35
2022-09-12T21:05:17.396Z,22.35
2022-09-12T21:07:43.719Z,22.32
2022-09-12T21:10:10.409Z,22.32
2022-09-12T21:12:37.301Z,22.33
2022-09-12T21:15:03.684Z,22.32
2022-09-12T21:17:30.008Z,22.32
2022-09-12T21:19:56.323Z,22.31
2022-09-12T21:22:22.646Z,22.36
2022-09-12T21:24:48.970Z,22.35
2022-09-12T21:27:15.290Z,22.33
2022-09-12T21:29:41.606Z,22.29
2022-09-12T21:32:12.138Z,22.26
2022-09-12T21:34:41.716Z,22.27
2022-09-12T21:37:08.037Z,22.30
2022-09-12T21:39:34.343Z,22.28
2022-09-12T21:42:01.031Z,22.28
2022-09-12T21:44:27.343Z,22.28
2022-09-12T21:46:53.747Z,22.27
2022-09-12T21:49:20.119Z,22.26
2022-09-12T21:51:46.468Z,22.26
2022-09-12T21:54:12.781Z,22.25
2022-09-12T21:56:39.157Z,22.23
2022-09-12T21:59:05.499Z,22.23
2022-09-12T22:01:31.875Z,22.23
2022-09-12T22:03:58.381Z,22.23
2022-09-12T22:06:24.727Z,22.21
2022-09-12T22:08:51.081Z,22.23
2022-09-12T22:11:19.730Z,22.21
2022-09-12T22:13:46.128Z,22.22
2022-09-12T22:16:12.606Z,22.22
2022-09-12T22:18:38.982Z,22.22
2022-09-12T22:21:06.163Z,22.23
2022-09-12T22:23:51.275Z,22.23
2022-09-12T22:26:17.942Z,22.21
2022-09-12T22:28:44.262Z,22.19
2022-09-12T22:31:11.481Z,22.18
2022-09-12T22:33:37.863Z,22.18
2022-09-12T22:36:04.176Z,22.17
2022-09-12T22:38:30.919Z,22.16
2022-09-12T22:40:59.179Z,22.17
2022-09-12T22:43:25.741Z,22.17
2022-09-12T22:45:52.253Z,22.18
2022-09-12T22:48:18.556Z,22.17
2022-09-12T22:50:45.686Z,22.17
2022-09-12T22:53:12.080Z,22.16
2022-09-12T22:55:38.416Z,22.15
2022-09-12T22:58:04.732Z,22.16
2022-09-12T23:00:31.096Z,22.13
2022-09-12T23:02:58.283Z,22.14
2022-09-12T23:05:24.714Z,22.13
2022-09-12T23:07:51.014Z,22.14
2022-09-12T23:10:17.368Z,22.13
2022-09-12T23:12:43.741Z,22.14
2022-09-12T23:15:10.225Z,22.13
2022-09-12T23:17:36.539Z,22.12
2022-09-12T23:20:03.518Z,22.13
2022-09-12T23:22:29.821Z,22.14
2022-09-12T23:24:56.125Z,22.12
2022-09-12T23:27:23.073Z,22.13
2022-09-12T23:29:52.379Z,22.12
2022-09-12T23:32:20.032Z,22.12
2022-09-12T23:34:47.072Z,22.10
2022-09-12T23:37:14.021Z,22.11
2022-09-12T23:39:40.409Z,22.10
2022-09-12T23:42:06.811Z,22.09
2022-09-12T23:44:33.146Z,22.10
2022-09-12T23:46:59.474Z,22.08
2022-09-12T23:49:25.807Z,22.09
2022-09-12T23:51:52.147Z,22.09
2022-09-12T23:54:18.477Z,22.07
2022-09-12T23:56:44.814Z,22.09
2022-09-12T23:59:11.179Z,22.09
